sensor_id;sensor_type;location;lat;lon;timestamp;P1;durP1;ratioP1;P2;durP2;ratioP2
39778;SDS011;25454;49.878;8.618;2023-02-28T00:03:59;3.23;;;1.93;;
39778;SDS011;25454;49.878;8.618;2023-02-28T00:09:00;4.07;;;2.10;;
39778;SDS011;25454;49.878;8.618;2023-02-28T00:14:01;3.23;;;1.77;;
39778;SDS011;25454;49.878;8.618;2023-02-28T00:19:02;2.77;;;1.90;;
39778;SDS011;25454;49.878;8.618;2023-02-28T00:24:02;2.53;;;1.80;;
39778;SDS011;25454;49.878;8.618;2023-02-28T00:29:03;3.23;;;2.10;;
39778;SDS011;25454;49.878;8.618;2023-02-28T00:34:04;1.70;;;1.60;;
39778;SDS011;25454;49.878;8.618;2023-02-28T00:39:04;2.47;;;1.90;;
39778;SDS011;25454;49.878;8.618;2023-02-28T00:44:05;2.27;;;1.77;;
39778;SDS011;25454;49.878;8.618;2023-02-28T00:49:05;3.53;;;2.00;;
39778;SDS011;25454;49.878;8.618;2023-02-28T00:54:06;2.50;;;1.93;;
39778;SDS011;25454;49.878;8.618;2023-02-28T00:59:06;1.87;;;1.43;;
39778;SDS011;25454;49.878;8.618;2023-02-28T01:04:08;1.70;;;1.60;;
39778;SDS011;25454;49.878;8.618;2023-02-28T01:09:08;3.33;;;1.70;;
39778;SDS011;25454;49.878;8.618;2023-02-28T01:14:13;1.80;;;1.70;;
39778;SDS011;25454;49.878;8.618;2023-02-28T01:19:15;1.77;;;1.43;;
39778;SDS011;25454;49.878;8.618;2023-02-28T01:24:16;2.40;;;1.80;;
39778;SDS011;25454;49.878;8.618;2023-02-28T01:29:16;4.50;;;2.10;;
39778;SDS011;25454;49.878;8.618;2023-02-28T01:34:17;2.47;;;1.60;;
39778;SDS011;25454;49.878;8.618;2023-02-28T01:39:19;3.33;;;1.80;;
39778;SDS011;25454;49.878;8.618;2023-02-28T01:49:58;4.20;;;2.00;;
39778;SDS011;25454;49.878;8.618;2023-02-28T01:55:02;3.13;;;2.00;;
39778;SDS011;25454;49.878;8.618;2023-02-28T02:00:13;4.00;;;2.27;;
39778;SDS011;25454;49.878;8.618;2023-02-28T02:05:17;4.10;;;2.20;;
39778;SDS011;25454;49.878;8.618;2023-02-28T02:10:21;5.77;;;2.90;;
39778;SDS011;25454;49.878;8.618;2023-02-28T02:15:31;5.47;;;2.77;;
39778;SDS011;25454;49.878;8.618;2023-02-28T02:25:56;2.90;;;2.60;;
39778;SDS011;25454;49.878;8.618;2023-02-28T02:36:42;3.30;;;2.63;;
39778;SDS011;25454;49.878;8.618;2023-02-28T02:42:05;3.90;;;2.60;;
39778;SDS011;25454;49.878;8.618;2023-02-28T02:47:14;4.13;;;2.90;;
39778;SDS011;25454;49.878;8.618;2023-02-28T02:52:21;3.83;;;2.50;;
39778;SDS011;25454;49.878;8.618;2023-02-28T02:57:33;2.93;;;2.53;;
39778;SDS011;25454;49.878;8.618;2023-02-28T03:02:45;3.83;;;2.77;;
39778;SDS011;25454;49.878;8.618;2023-02-28T03:07:47;3.93;;;2.80;;
39778;SDS011;25454;49.878;8.618;2023-02-28T03:12:50;4.77;;;3.30;;
39778;SDS011;25454;49.878;8.618;2023-02-28T03:18:06;4.73;;;3.23;;
39778;SDS011;25454;49.878;8.618;2023-02-28T03:33:25;10.93;;;4.57;;
39778;SDS011;25454;49.878;8.618;2023-02-28T03:38:45;9.17;;;3.80;;
39778;SDS011;25454;49.878;8.618;2023-02-28T03:44:09;6.23;;;3.27;;
39778;SDS011;25454;49.878;8.618;2023-02-28T03:49:22;4.03;;;3.63;;
39778;SDS011;25454;49.878;8.618;2023-02-28T03:54:32;4.63;;;3.20;;
39778;SDS011;25454;49.878;8.618;2023-02-28T03:59:37;6.07;;;3.57;;
39778;SDS011;25454;49.878;8.618;2023-02-28T04:04:44;4.77;;;3.63;;
39778;SDS011;25454;49.878;8.618;2023-02-28T04:09:48;7.00;;;3.77;;
39778;SDS011;25454;49.878;8.618;2023-02-28T04:14:49;5.23;;;3.80;;
39778;SDS011;25454;49.878;8.618;2023-02-28T04:19:49;6.37;;;3.60;;
39778;SDS011;25454;49.878;8.618;2023-02-28T04:24:50;6.97;;;4.40;;
39778;SDS011;25454;49.878;8.618;2023-02-28T04:29:50;7.10;;;4.07;;
39778;SDS011;25454;49.878;8.618;2023-02-28T04:34:51;5.43;;;3.50;;
39778;SDS011;25454;49.878;8.618;2023-02-28T04:39:52;4.13;;;3.30;;
39778;SDS011;25454;49.878;8.618;2023-02-28T04:44:52;7.50;;;3.37;;
39778;SDS011;25454;49.878;8.618;2023-02-28T04:49:53;5.13;;;3.43;;
39778;SDS011;25454;49.878;8.618;2023-02-28T04:54:53;6.23;;;3.57;;
39778;SDS011;25454;49.878;8.618;2023-02-28T04:59:54;7.73;;;3.97;;
39778;SDS011;25454;49.878;8.618;2023-02-28T05:04:55;6.20;;;3.60;;
39778;SDS011;25454;49.878;8.618;2023-02-28T05:09:55;5.77;;;3.93;;
39778;SDS011;25454;49.878;8.618;2023-02-28T05:14:56;6.93;;;4.10;;
39778;SDS011;25454;49.878;8.618;2023-02-28T05:19:56;6.83;;;3.50;;
39778;SDS011;25454;49.878;8.618;2023-02-28T05:24:57;4.77;;;3.20;;
39778;SDS011;25454;49.878;8.618;2023-02-28T05:29:58;4.77;;;3.07;;
39778;SDS011;25454;49.878;8.618;2023-02-28T05:34:59;5.67;;;3.00;;
39778;SDS011;25454;49.878;8.618;2023-02-28T05:39:59;4.57;;;3.40;;
39778;SDS011;25454;49.878;8.618;2023-02-28T05:45:00;6.80;;;3.50;;
39778;SDS011;25454;49.878;8.618;2023-02-28T05:50:01;5.63;;;3.00;;
39778;SDS011;25454;49.878;8.618;2023-02-28T05:55:02;4.50;;;3.10;;
39778;SDS011;25454;49.878;8.618;2023-02-28T06:00:03;5.67;;;3.43;;
39778;SDS011;25454;49.878;8.618;2023-02-28T06:05:04;4.40;;;3.40;;
39778;SDS011;25454;49.878;8.618;2023-02-28T06:10:06;3.17;;;2.87;;
39778;SDS011;25454;49.878;8.618;2023-02-28T06:15:07;4.00;;;3.00;;
39778;SDS011;25454;49.878;8.618;2023-02-28T06:20:14;4.93;;;3.17;;
39778;SDS011;25454;49.878;8.618;2023-02-28T06:25:15;7.60;;;3.20;;
39778;SDS011;25454;49.878;8.618;2023-02-28T06:30:15;6.03;;;3.30;;
39778;SDS011;25454;49.878;8.618;2023-02-28T06:35:16;5.57;;;3.13;;
39778;SDS011;25454;49.878;8.618;2023-02-28T06:40:17;4.87;;;3.50;;
39778;SDS011;25454;49.878;8.618;2023-02-28T06:45:18;5.67;;;4.40;;
39778;SDS011;25454;49.878;8.618;2023-02-28T06:50:18;9.13;;;3.80;;
39778;SDS011;25454;49.878;8.618;2023-02-28T06:55:20;8.47;;;3.50;;
39778;SDS011;25454;49.878;8.618;2023-02-28T07:00:20;7.70;;;3.70;;
39778;SDS011;25454;49.878;8.618;2023-02-28T07:05:21;4.13;;;2.90;;
39778;SDS011;25454;49.878;8.618;2023-02-28T07:10:22;3.83;;;2.70;;
39778;SDS011;25454;49.878;8.618;2023-02-28T07:15:23;4.97;;;2.97;;
39778;SDS011;25454;49.878;8.618;2023-02-28T07:20:24;6.03;;;3.03;;
39778;SDS011;25454;49.878;8.618;2023-02-28T07:25:25;4.97;;;2.60;;
39778;SDS011;25454;49.878;8.618;2023-02-28T07:30:27;3.27;;;2.60;;
39778;SDS011;25454;49.878;8.618;2023-02-28T07:35:28;2.63;;;2.30;;
39778;SDS011;25454;49.878;8.618;2023-02-28T07:40:28;3.70;;;2.50;;
39778;SDS011;25454;49.878;8.618;2023-02-28T07:45:30;6.73;;;2.53;;
39778;SDS011;25454;49.878;8.618;2023-02-28T07:50:34;6.00;;;3.10;;
39778;SDS011;25454;49.878;8.618;2023-02-28T07:55:34;5.13;;;3.03;;
39778;SDS011;25454;49.878;8.618;2023-02-28T08:00:35;5.77;;;3.60;;
39778;SDS011;25454;49.878;8.618;2023-02-28T08:05:38;3.93;;;2.90;;
39778;SDS011;25454;49.878;8.618;2023-02-28T08:10:41;3.07;;;2.20;;
39778;SDS011;25454;49.878;8.618;2023-02-28T08:15:42;4.33;;;2.50;;
39778;SDS011;25454;49.878;8.618;2023-02-28T08:20:43;4.00;;;2.47;;
39778;SDS011;25454;49.878;8.618;2023-02-28T08:25:43;4.03;;;2.70;;
39778;SDS011;25454;49.878;8.618;2023-02-28T08:30:44;3.70;;;2.70;;
39778;SDS011;25454;49.878;8.618;2023-02-28T08:35:44;6.07;;;3.03;;
39778;SDS011;25454;49.878;8.618;2023-02-28T08:40:45;3.37;;;2.80;;
39778;SDS011;25454;49.878;8.618;2023-02-28T08:45:45;3.47;;;2.43;;
39778;SDS011;25454;49.878;8.618;2023-02-28T08:56:18;4.17;;;3.10;;
39778;SDS011;25454;49.878;8.618;2023-02-28T09:01:20;6.30;;;2.97;;
39778;SDS011;25454;49.878;8.618;2023-02-28T09:06:25;3.83;;;2.90;;
39778;SDS011;25454;49.878;8.618;2023-02-28T09:11:27;5.00;;;3.13;;
39778;SDS011;25454;49.878;8.618;2023-02-28T09:16:29;4.87;;;2.90;;
39778;SDS011;25454;49.878;8.618;2023-02-28T09:21:31;5.47;;;2.90;;
39778;SDS011;25454;49.878;8.618;2023-02-28T09:26:32;4.63;;;3.30;;
39778;SDS011;25454;49.878;8.618;2023-02-28T09:31:32;6.40;;;3.30;;
39778;SDS011;25454;49.878;8.618;2023-02-28T09:36:33;4.00;;;3.43;;
39778;SDS011;25454;49.878;8.618;2023-02-28T09:41:38;3.83;;;3.50;;
39778;SDS011;25454;49.878;8.618;2023-02-28T09:46:54;4.63;;;3.50;;
39778;SDS011;25454;49.878;8.618;2023-02-28T09:52:01;6.73;;;3.90;;
39778;SDS011;25454;49.878;8.618;2023-02-28T09:57:13;5.07;;;3.73;;
39778;SDS011;25454;49.878;8.618;2023-02-28T10:13:15;5.30;;;4.00;;
39778;SDS011;25454;49.878;8.618;2023-02-28T10:18:19;9.63;;;4.27;;
39778;SDS011;25454;49.878;8.618;2023-02-28T10:23:28;4.63;;;3.80;;
39778;SDS011;25454;49.878;8.618;2023-02-28T10:28:34;4.70;;;3.90;;
39778;SDS011;25454;49.878;8.618;2023-02-28T10:33:35;5.60;;;4.20;;
39778;SDS011;25454;49.878;8.618;2023-02-28T10:38:37;8.33;;;4.77;;
39778;SDS011;25454;49.878;8.618;2023-02-28T10:43:39;4.37;;;3.90;;
39778;SDS011;25454;49.878;8.618;2023-02-28T10:48:45;4.80;;;4.20;;
39778;SDS011;25454;49.878;8.618;2023-02-28T10:53:57;7.73;;;3.90;;
39778;SDS011;25454;49.878;8.618;2023-02-28T11:03:58;5.87;;;4.30;;
39778;SDS011;25454;49.878;8.618;2023-02-28T11:09:03;4.93;;;4.20;;
39778;SDS011;25454;49.878;8.618;2023-02-28T11:14:06;5.33;;;3.93;;
39778;SDS011;25454;49.878;8.618;2023-02-28T11:19:35;4.90;;;4.23;;
39778;SDS011;25454;49.878;8.618;2023-02-28T11:24:42;5.40;;;3.70;;
39778;SDS011;25454;49.878;8.618;2023-02-28T11:29:46;4.70;;;3.83;;
39778;SDS011;25454;49.878;8.618;2023-02-28T11:35:34;5.73;;;4.00;;
39778;SDS011;25454;49.878;8.618;2023-02-28T11:40:15;9.33;;;4.80;;
39778;SDS011;25454;49.878;8.618;2023-02-28T11:55:38;9.03;;;4.53;;
39778;SDS011;25454;49.878;8.618;2023-02-28T12:01:07;5.50;;;4.40;;
39778;SDS011;25454;49.878;8.618;2023-02-28T12:17:29;6.60;;;4.27;;
39778;SDS011;25454;49.878;8.618;2023-02-28T12:28:25;5.03;;;3.90;;
39778;SDS011;25454;49.878;8.618;2023-02-28T12:33:34;5.30;;;4.00;;
39778;SDS011;25454;49.878;8.618;2023-02-28T12:38:41;6.10;;;4.70;;
39778;SDS011;25454;49.878;8.618;2023-02-28T12:43:47;5.70;;;4.80;;
39778;SDS011;25454;49.878;8.618;2023-02-28T12:48:56;6.37;;;5.20;;
39778;SDS011;25454;49.878;8.618;2023-02-28T12:54:07;7.80;;;4.73;;
39778;SDS011;25454;49.878;8.618;2023-02-28T12:59:30;7.97;;;4.90;;
39778;SDS011;25454;49.878;8.618;2023-02-28T13:05:24;6.37;;;4.60;;
39778;SDS011;25454;49.878;8.618;2023-02-28T13:10:42;6.60;;;5.23;;
39778;SDS011;25454;49.878;8.618;2023-02-28T13:16:01;7.70;;;5.10;;
39778;SDS011;25454;49.878;8.618;2023-02-28T13:21:10;6.93;;;4.90;;
39778;SDS011;25454;49.878;8.618;2023-02-28T13:52:46;6.77;;;4.73;;
39778;SDS011;25454;49.878;8.618;2023-02-28T13:58:09;6.77;;;5.13;;
39778;SDS011;25454;49.878;8.618;2023-02-28T14:09:01;6.30;;;5.10;;
39778;SDS011;25454;49.878;8.618;2023-02-28T14:14:08;5.20;;;4.27;;
39778;SDS011;25454;49.878;8.618;2023-02-28T14:19:30;10.40;;;4.53;;
39778;SDS011;25454;49.878;8.618;2023-02-28T14:24:46;7.83;;;4.33;;
39778;SDS011;25454;49.878;8.618;2023-02-28T14:30:15;6.73;;;4.73;;
39778;SDS011;25454;49.878;8.618;2023-02-28T14:40:44;6.63;;;4.20;;
39778;SDS011;25454;49.878;8.618;2023-02-28T14:45:48;8.80;;;4.80;;
39778;SDS011;25454;49.878;8.618;2023-02-28T14:50:55;5.87;;;4.50;;
39778;SDS011;25454;49.878;8.618;2023-02-28T14:55:58;4.80;;;4.20;;
39778;SDS011;25454;49.878;8.618;2023-02-28T15:01:01;6.47;;;4.83;;
39778;SDS011;25454;49.878;8.618;2023-02-28T15:06:04;6.27;;;4.27;;
39778;SDS011;25454;49.878;8.618;2023-02-28T15:11:13;7.40;;;4.90;;
39778;SDS011;25454;49.878;8.618;2023-02-28T15:16:19;5.90;;;5.23;;
39778;SDS011;25454;49.878;8.618;2023-02-28T15:26:31;6.40;;;5.07;;
39778;SDS011;25454;49.878;8.618;2023-02-28T15:31:37;6.10;;;4.57;;
39778;SDS011;25454;49.878;8.618;2023-02-28T15:36:42;5.63;;;4.63;;
39778;SDS011;25454;49.878;8.618;2023-02-28T15:41:43;6.93;;;4.77;;
39778;SDS011;25454;49.878;8.618;2023-02-28T15:47:05;6.30;;;4.50;;
39778;SDS011;25454;49.878;8.618;2023-02-28T15:52:09;9.10;;;4.70;;
39778;SDS011;25454;49.878;8.618;2023-02-28T15:57:18;6.47;;;4.80;;
39778;SDS011;25454;49.878;8.618;2023-02-28T16:02:34;6.07;;;4.53;;
39778;SDS011;25454;49.878;8.618;2023-02-28T16:07:36;6.20;;;4.57;;
39778;SDS011;25454;49.878;8.618;2023-02-28T16:12:38;5.83;;;4.80;;
39778;SDS011;25454;49.878;8.618;2023-02-28T16:17:40;5.00;;;4.17;;
39778;SDS011;25454;49.878;8.618;2023-02-28T16:22:41;6.70;;;4.60;;
39778;SDS011;25454;49.878;8.618;2023-02-28T16:27:42;9.67;;;5.17;;
39778;SDS011;25454;49.878;8.618;2023-02-28T16:32:45;6.07;;;4.67;;
39778;SDS011;25454;49.878;8.618;2023-02-28T16:37:45;7.53;;;5.17;;
39778;SDS011;25454;49.878;8.618;2023-02-28T16:42:46;7.53;;;5.13;;
39778;SDS011;25454;49.878;8.618;2023-02-28T16:47:49;7.70;;;5.53;;
39778;SDS011;25454;49.878;8.618;2023-02-28T16:52:50;7.30;;;5.03;;
39778;SDS011;25454;49.878;8.618;2023-02-28T16:57:58;5.37;;;4.57;;
39778;SDS011;25454;49.878;8.618;2023-02-28T17:03:00;8.13;;;4.97;;
39778;SDS011;25454;49.878;8.618;2023-02-28T17:08:01;6.33;;;4.67;;
39778;SDS011;25454;49.878;8.618;2023-02-28T17:13:02;8.13;;;5.30;;
39778;SDS011;25454;49.878;8.618;2023-02-28T17:18:03;6.70;;;5.00;;
39778;SDS011;25454;49.878;8.618;2023-02-28T17:23:04;10.27;;;5.60;;
39778;SDS011;25454;49.878;8.618;2023-02-28T17:28:08;9.17;;;5.37;;
39778;SDS011;25454;49.878;8.618;2023-02-28T17:33:09;6.60;;;5.10;;
39778;SDS011;25454;49.878;8.618;2023-02-28T17:38:13;7.83;;;5.50;;
39778;SDS011;25454;49.878;8.618;2023-02-28T17:43:19;7.23;;;5.27;;
39778;SDS011;25454;49.878;8.618;2023-02-28T17:48:19;7.63;;;5.50;;
39778;SDS011;25454;49.878;8.618;2023-02-28T17:53:20;8.90;;;5.83;;
39778;SDS011;25454;49.878;8.618;2023-02-28T17:58:22;8.83;;;6.00;;
39778;SDS011;25454;49.878;8.618;2023-02-28T18:03:23;7.83;;;5.50;;
39778;SDS011;25454;49.878;8.618;2023-02-28T18:08:25;7.27;;;5.97;;
39778;SDS011;25454;49.878;8.618;2023-02-28T18:13:26;7.37;;;5.30;;
39778;SDS011;25454;49.878;8.618;2023-02-28T18:18:28;7.57;;;5.40;;
39778;SDS011;25454;49.878;8.618;2023-02-28T18:23:29;10.13;;;6.27;;
39778;SDS011;25454;49.878;8.618;2023-02-28T18:28:30;10.53;;;5.80;;
39778;SDS011;25454;49.878;8.618;2023-02-28T18:33:33;8.70;;;6.30;;
39778;SDS011;25454;49.878;8.618;2023-02-28T18:38:35;9.00;;;6.33;;
39778;SDS011;25454;49.878;8.618;2023-02-28T18:43:36;9.80;;;5.97;;
39778;SDS011;25454;49.878;8.618;2023-02-28T18:48:37;9.43;;;6.13;;
39778;SDS011;25454;49.878;8.618;2023-02-28T18:53:39;10.27;;;6.73;;
39778;SDS011;25454;49.878;8.618;2023-02-28T18:58:40;9.10;;;6.87;;
39778;SDS011;25454;49.878;8.618;2023-02-28T19:03:41;12.30;;;7.50;;
39778;SDS011;25454;49.878;8.618;2023-02-28T19:08:43;9.30;;;7.23;;
39778;SDS011;25454;49.878;8.618;2023-02-28T19:13:44;10.90;;;6.60;;
39778;SDS011;25454;49.878;8.618;2023-02-28T19:18:45;13.57;;;7.37;;
39778;SDS011;25454;49.878;8.618;2023-02-28T19:23:46;8.70;;;6.97;;
39778;SDS011;25454;49.878;8.618;2023-02-28T19:28:47;11.63;;;7.00;;
39778;SDS011;25454;49.878;8.618;2023-02-28T19:33:48;10.30;;;7.67;;
39778;SDS011;25454;49.878;8.618;2023-02-28T19:38:51;11.00;;;7.60;;
39778;SDS011;25454;49.878;8.618;2023-02-28T19:43:52;7.97;;;6.13;;
39778;SDS011;25454;49.878;8.618;2023-02-28T19:48:53;11.13;;;6.70;;
39778;SDS011;25454;49.878;8.618;2023-02-28T19:53:54;10.07;;;6.17;;
39778;SDS011;25454;49.878;8.618;2023-02-28T19:58:56;9.90;;;6.87;;
39778;SDS011;25454;49.878;8.618;2023-02-28T20:03:57;8.83;;;6.13;;
39778;SDS011;25454;49.878;8.618;2023-02-28T20:08:57;12.70;;;6.33;;
39778;SDS011;25454;49.878;8.618;2023-02-28T20:13:58;10.00;;;6.17;;
39778;SDS011;25454;49.878;8.618;2023-02-28T20:19:01;8.33;;;6.07;;
39778;SDS011;25454;49.878;8.618;2023-02-28T20:24:01;9.20;;;6.53;;
39778;SDS011;25454;49.878;8.618;2023-02-28T20:29:03;9.27;;;6.53;;
39778;SDS011;25454;49.878;8.618;2023-02-28T20:34:04;10.17;;;6.97;;
39778;SDS011;25454;49.878;8.618;2023-02-28T20:39:05;8.27;;;6.53;;
39778;SDS011;25454;49.878;8.618;2023-02-28T20:44:05;12.27;;;7.57;;
39778;SDS011;25454;49.878;8.618;2023-02-28T20:49:06;10.07;;;6.97;;
39778;SDS011;25454;49.878;8.618;2023-02-28T20:54:07;11.53;;;6.87;;
39778;SDS011;25454;49.878;8.618;2023-02-28T20:59:10;10.20;;;7.90;;
39778;SDS011;25454;49.878;8.618;2023-02-28T21:04:11;8.97;;;6.83;;
39778;SDS011;25454;49.878;8.618;2023-02-28T21:09:12;12.47;;;6.93;;
39778;SDS011;25454;49.878;8.618;2023-02-28T21:14:14;9.93;;;7.30;;
39778;SDS011;25454;49.878;8.618;2023-02-28T21:19:16;11.57;;;6.90;;
39778;SDS011;25454;49.878;8.618;2023-02-28T21:24:18;12.20;;;7.40;;
39778;SDS011;25454;49.878;8.618;2023-02-28T21:29:19;10.40;;;7.17;;
39778;SDS011;25454;49.878;8.618;2023-02-28T21:34:19;10.47;;;7.40;;
39778;SDS011;25454;49.878;8.618;2023-02-28T21:39:21;10.47;;;7.77;;
39778;SDS011;25454;49.878;8.618;2023-02-28T21:44:24;10.53;;;7.33;;
39778;SDS011;25454;49.878;8.618;2023-02-28T21:49:27;10.70;;;6.80;;
39778;SDS011;25454;49.878;8.618;2023-02-28T21:54:28;11.07;;;7.87;;
39778;SDS011;25454;49.878;8.618;2023-02-28T21:59:28;10.47;;;7.10;;
39778;SDS011;25454;49.878;8.618;2023-02-28T22:04:29;8.90;;;6.97;;
39778;SDS011;25454;49.878;8.618;2023-02-28T22:09:29;10.83;;;7.40;;
39778;SDS011;25454;49.878;8.618;2023-02-28T22:14:31;14.50;;;9.10;;
39778;SDS011;25454;49.878;8.618;2023-02-28T22:19:32;12.13;;;7.60;;
39778;SDS011;25454;49.878;8.618;2023-02-28T22:24:32;10.97;;;7.80;;
39778;SDS011;25454;49.878;8.618;2023-02-28T22:29:33;15.20;;;8.60;;
39778;SDS011;25454;49.878;8.618;2023-02-28T22:34:33;10.90;;;8.27;;
39778;SDS011;25454;49.878;8.618;2023-02-28T22:39:34;11.57;;;8.00;;
39778;SDS011;25454;49.878;8.618;2023-02-28T22:44:35;11.90;;;8.47;;
39778;SDS011;25454;49.878;8.618;2023-02-28T22:49:35;11.37;;;8.43;;
39778;SDS011;25454;49.878;8.618;2023-02-28T22:54:36;11.80;;;8.60;;
39778;SDS011;25454;49.878;8.618;2023-02-28T22:59:36;12.73;;;8.57;;
39778;SDS011;25454;49.878;8.618;2023-02-28T23:04:37;13.80;;;8.87;;
39778;SDS011;25454;49.878;8.618;2023-02-28T23:09:37;11.90;;;8.30;;
39778;SDS011;25454;49.878;8.618;2023-02-28T23:14:38;13.43;;;9.27;;
39778;SDS011;25454;49.878;8.618;2023-02-28T23:19:42;13.70;;;8.87;;
39778;SDS011;25454;49.878;8.618;2023-02-28T23:24:42;12.77;;;8.60;;
39778;SDS011;25454;49.878;8.618;2023-02-28T23:29:43;13.73;;;9.20;;
39778;SDS011;25454;49.878;8.618;2023-02-28T23:34:44;11.93;;;9.20;;
39778;SDS011;25454;49.878;8.618;2023-02-28T23:39:44;11.93;;;8.27;;
39778;SDS011;25454;49.878;8.618;2023-02-28T23:44:45;12.70;;;9.37;;
39778;SDS011;25454;49.878;8.618;2023-02-28T23:49:45;15.23;;;9.93;;
39778;SDS011;25454;49.878;8.618;2023-02-28T23:54:47;15.10;;;10.10;;
39778;SDS011;25454;49.878;8.618;2023-02-28T23:59:47;13.50;;;9.37;;
